Time;durP1;ratioP1;P1;durP2;ratioP2;P2;SDS_P1;SDS_P2;PMS_P1;PMS_P2;Temp;Humidity;BMP_temperature;BMP_pressure;BME280_temperature;BME280_humidity;BME280_pressure;Samples;Min_cycle;Max_cycle;Signal;HPM_P1;HPM_P2
2024/01/06 00:00:41;;;;;;;4.37;2.50;;;;;;;18.95;45.25;100240.38;4969207;28;20045;-74
2024/01/06 00:03:07;;;;;;;3.88;2.00;;;;;;;18.83;45.19;100226.50;4967843;28;20335;-74
2024/01/06 00:05:32;;;;;;;4.45;2.47;;;;;;;18.91;45.32;100238.16;4969682;28;20460;-74
2024/01/06 00:07:57;;;;;;;5.20;2.33;;;;;;;18.82;45.21;100235.41;4968772;28;20039;-73
2024/01/06 00:10:22;;;;;;;4.77;2.27;;;;;;;18.88;45.17;100247.19;4969304;28;20443;-74
2024/01/06 00:12:48;;;;;;;4.68;2.20;;;;;;;18.82;45.04;100245.13;4967888;28;20375;-74
2024/01/06 00:15:14;;;;;;;4.25;2.20;;;;;;;18.84;45.25;100254.59;4969025;28;20464;-73
2024/01/06 00:17:39;;;;;;;3.85;2.10;;;;;;;18.75;45.13;100244.84;4969098;28;20041;-73
2024/01/06 00:20:05;;;;;;;4.63;2.25;;;;;;;18.87;45.15;100263.19;4968883;28;20125;-74
2024/01/06 00:22:31;;;;;;;3.78;2.03;;;;;;;18.82;45.26;100267.06;4969261;28;20031;-74
2024/01/06 00:24:56;;;;;;;4.40;2.25;;;;;;;18.75;44.92;100259.88;4969366;28;20034;-74
2024/01/06 00:27:21;;;;;;;3.50;1.90;;;;;;;18.77;44.96;100271.97;4968850;28;20045;-74
2024/01/06 00:29:47;;;;;;;3.47;2.00;;;;;;;18.82;45.07;100277.63;4968432;28;20098;-74
2024/01/06 00:32:12;;;;;;;3.35;2.05;;;;;;;18.76;45.42;100270.28;4968371;28;20039;-73
2024/01/06 00:34:38;;;;;;;4.35;2.30;;;;;;;18.74;44.89;100271.38;4968860;28;21252;-73
2024/01/06 00:37:03;;;;;;;3.83;2.40;;;;;;;18.79;44.84;100288.47;4968611;28;20037;-75
2024/01/06 00:39:28;;;;;;;3.85;2.33;;;;;;;18.77;45.16;100286.94;4968675;28;20291;-74
2024/01/06 00:41:54;;;;;;;3.75;2.20;;;;;;;18.78;44.79;100293.91;4968615;28;20018;-72
2024/01/06 00:44:19;;;;;;;4.25;2.60;;;;;;;18.73;44.84;100281.13;4968495;28;20447;-74
2024/01/06 00:46:45;;;;;;;4.38;2.53;;;;;;;18.76;44.58;100294.03;4968380;28;20065;-74
2024/01/06 00:49:10;;;;;;;3.95;2.22;;;;;;;18.72;44.75;100290.00;4968655;28;20034;-73
2024/01/06 00:51:35;;;;;;;4.25;2.42;;;;;;;18.70;44.68;100281.41;4968075;28;20105;-73
2024/01/06 00:54:01;;;;;;;4.57;2.75;;;;;;;18.62;44.64;100274.19;4967977;28;20157;-73
2024/01/06 00:56:27;;;;;;;4.00;2.60;;;;;;;18.72;44.51;100291.81;4968288;28;20035;-73
2024/01/06 00:58:53;;;;;;;4.55;2.47;;;;;;;18.61;44.58;100274.34;4968140;28;20041;-73
2024/01/06 01:01:18;;;;;;;4.38;2.40;;;;;;;18.70;44.31;100294.59;4968221;28;20038;-73
2024/01/06 01:03:43;;;;;;;4.18;2.50;;;;;;;18.68;44.62;100294.75;4966772;28;20377;-74
2024/01/06 01:06:08;;;;;;;4.43;2.70;;;;;;;18.67;44.44;100298.38;4968082;28;20031;-73
2024/01/06 01:08:34;;;;;;;4.28;2.53;;;;;;;18.65;44.73;100302.13;4967890;28;20519;-73
2024/01/06 01:10:59;;;;;;;4.18;2.47;;;;;;;18.59;44.13;100292.94;4967888;28;20038;-74
2024/01/06 01:13:24;;;;;;;4.30;2.63;;;;;;;18.61;44.12;100303.38;4967403;28;20030;-73
2024/01/06 01:15:50;;;;;;;4.35;2.50;;;;;;;18.64;44.51;100309.22;4967830;28;20042;-73
2024/01/06 01:18:15;;;;;;;4.32;2.45;;;;;;;18.63;44.31;100307.53;4967075;28;20490;-73
2024/01/06 01:20:43;;;;;;;4.97;2.80;;;;;;;18.63;44.49;100306.72;4967967;28;20031;-74
2024/01/06 01:23:08;;;;;;;3.92;2.25;;;;;;;18.58;44.25;100308.91;4967696;28;20046;-73
2024/01/06 01:25:33;;;;;;;5.00;2.80;;;;;;;18.58;44.29;100312.41;4949684;28;20050;-73
2024/01/06 01:27:59;;;;;;;4.78;2.80;;;;;;;18.51;44.13;100299.91;4965896;28;20045;-74
2024/01/06 01:30:24;;;;;;;4.47;2.70;;;;;;;18.57;44.28;100320.47;4967487;28;20694;-74
2024/01/06 01:32:49;;;;;;;4.22;2.63;;;;;;;18.59;44.06;100323.78;4967262;28;20443;-73
2024/01/06 01:35:15;;;;;;;4.32;2.30;;;;;;;18.57;44.18;100331.03;4967393;28;20089;-73
2024/01/06 01:37:40;;;;;;;4.05;2.63;;;;;;;18.54;44.16;100329.47;4967750;28;20031;-73
2024/01/06 01:40:07;;;;;;;3.78;2.40;;;;;;;18.56;44.21;100334.63;4967840;28;20472;-75
2024/01/06 01:42:33;;;;;;;4.05;2.53;;;;;;;18.50;44.18;100328.13;4967353;28;20106;-73
2024/01/06 01:44:58;;;;;;;4.57;3.08;;;;;;;18.55;44.02;100335.59;4967208;28;20123;-73
2024/01/06 01:47:24;;;;;;;4.37;2.40;;;;;;;18.45;44.13;100331.16;4965815;28;20051;-72
2024/01/06 01:49:49;;;;;;;4.40;2.60;;;;;;;18.54;44.05;100345.31;4967441;28;20344;-72
2024/01/06 01:52:15;;;;;;;4.32;2.75;;;;;;;18.52;43.97;100347.28;4967417;28;20040;-72
2024/01/06 01:54:42;;;;;;;4.13;2.30;;;;;;;18.47;44.02;100342.41;4967434;28;20027;-73
2024/01/06 01:57:10;;;;;;;4.38;2.58;;;;;;;18.44;44.08;100345.31;4967044;28;20043;-73
2024/01/06 01:59:36;;;;;;;4.15;2.47;;;;;;;18.49;43.81;100363.38;4966897;28;20412;-72
2024/01/06 02:02:02;;;;;;;4.40;2.40;;;;;;;18.46;44.02;100351.28;4965679;28;20061;-74
2024/01/06 02:04:27;;;;;;;5.47;2.30;;;;;;;18.38;44.01;100339.78;4966934;28;20077;-74
2024/01/06 02:06:52;;;;;;;4.70;2.30;;;;;;;18.38;43.98;100342.41;4967205;28;20110;-73
2024/01/06 02:09:18;;;;;;;4.40;2.50;;;;;;;18.46;43.97;100356.56;4966752;28;20038;-72
2024/01/06 02:11:43;;;;;;;4.30;2.50;;;;;;;18.45;44.13;100354.91;4967053;28;20480;-72
2024/01/06 02:14:08;;;;;;;4.30;2.63;;;;;;;18.41;44.24;100355.31;4967103;28;20443;-72
2024/01/06 02:16:33;;;;;;;5.05;2.60;;;;;;;18.42;44.04;100363.09;4966548;28;20026;-73
2024/01/06 02:18:59;;;;;;;4.30;2.67;;;;;;;18.40;43.73;100367.66;4966625;28;20033;-73
2024/01/06 02:21:28;;;;;;;4.00;2.30;;;;;;;18.37;43.70;100367.94;4966825;28;20275;-74
2024/01/06 02:23:54;;;;;;;3.88;2.17;;;;;;;18.42;43.91;100378.94;4966629;28;20041;-73
2024/01/06 02:26:19;;;;;;;3.67;2.00;;;;;;;18.42;43.77;100386.84;4967036;28;20153;-73
2024/01/06 02:28:49;;;;;;;3.95;2.30;;;;;;;18.30;43.84;100366.84;4966818;28;20034;-73
2024/01/06 02:31:14;;;;;;;3.25;1.70;;;;;;;18.33;43.89;100374.47;4967111;28;20066;-72
2024/01/06 02:33:39;;;;;;;3.90;2.00;;;;;;;18.39;43.27;100386.28;4966400;28;21057;-73
2024/01/06 02:36:05;;;;;;;3.50;1.90;;;;;;;18.29;43.68;100378.34;4968833;28;20039;-73
2024/01/06 02:38:30;;;;;;;4.38;2.10;;;;;;;18.39;43.77;100402.09;4970581;28;20643;-73
2024/01/06 02:40:55;;;;;;;3.80;1.80;;;;;;;18.38;43.80;100408.38;4970905;28;20077;-74
2024/01/06 02:43:21;;;;;;;3.08;1.73;;;;;;;18.37;43.70;100407.50;4970408;28;20384;-73
2024/01/06 02:45:47;;;;;;;3.60;1.80;;;;;;;18.36;43.55;100412.91;4970693;28;20104;-73
2024/01/06 02:48:12;;;;;;;2.97;1.60;;;;;;;18.26;43.60;100402.34;4970464;28;20038;-73
2024/01/06 02:50:37;;;;;;;3.85;1.60;;;;;;;18.34;43.38;100414.88;4971215;28;20089;-74
2024/01/06 02:53:03;;;;;;;2.77;1.53;;;;;;;18.34;43.44;100420.16;4970353;28;20042;-74
2024/01/06 02:55:28;;;;;;;3.42;1.75;;;;;;;18.33;43.38;100423.78;4970818;28;20621;-72
2024/01/06 02:57:53;;;;;;;2.58;1.50;;;;;;;18.25;43.30;100417.34;4970222;28;20090;-72
2024/01/06 03:00:19;;;;;;;2.92;1.52;;;;;;;18.20;43.20;100421.34;4970221;28;20027;-73
2024/01/06 03:02:44;;;;;;;3.70;1.70;;;;;;;18.24;43.39;100439.41;4969548;28;20052;-73
2024/01/06 03:05:10;;;;;;;2.47;1.42;;;;;;;18.27;43.32;100439.16;4985333;28;20535;-73
2024/01/06 03:07:35;;;;;;;3.60;1.75;;;;;;;18.30;43.22;100454.72;4970199;28;20135;-73
2024/01/06 03:10:01;;;;;;;2.47;1.38;;;;;;;18.23;43.16;100450.97;4969974;28;20031;-74
2024/01/06 03:12:26;;;;;;;2.88;1.50;;;;;;;18.24;43.12;100455.25;4970148;28;20042;-73
2024/01/06 03:14:52;;;;;;;2.72;1.42;;;;;;;18.20;43.32;100453.88;4970150;28;20034;-74
2024/01/06 03:17:18;;;;;;;3.50;1.70;;;;;;;18.18;43.35;100453.16;4969970;28;20099;-72
2024/01/06 03:19:44;;;;;;;3.08;1.70;;;;;;;18.29;43.14;100473.31;4970185;28;20078;-73
2024/01/06 03:22:09;;;;;;;3.15;1.60;;;;;;;18.27;42.87;100473.44;4970115;28;20034;-72
2024/01/06 03:24:34;;;;;;;3.30;1.50;;;;;;;18.18;43.21;100466.34;4969568;28;20570;-74
2024/01/06 03:27:00;;;;;;;3.43;1.60;;;;;;;18.26;43.26;100470.94;4970115;28;20059;-73
2024/01/06 03:29:25;;;;;;;2.78;1.40;;;;;;;18.26;43.15;100484.13;4969555;28;20272;-73
2024/01/06 03:31:50;;;;;;;2.60;1.40;;;;;;;18.20;43.05;100476.75;4970225;28;20038;-72
2024/01/06 03:34:15;;;;;;;2.83;1.33;;;;;;;18.24;43.10;100486.91;4969917;28;20472;-74
2024/01/06 03:36:41;;;;;;;2.60;1.30;;;;;;;18.25;42.98;100487.75;4968958;28;20126;-73
2024/01/06 03:39:07;;;;;;;2.55;1.30;;;;;;;18.24;42.94;100494.81;4969716;28;20031;-72
2024/01/06 03:41:33;;;;;;;3.05;1.45;;;;;;;18.22;43.17;100496.75;4968542;28;20034;-71
2024/01/06 03:43:58;;;;;;;2.50;1.38;;;;;;;18.22;42.97;100490.66;4969251;28;20027;-73
2024/01/06 03:46:24;;;;;;;2.83;1.35;;;;;;;18.12;43.06;100480.06;4969642;28;20488;-74
2024/01/06 03:48:49;;;;;;;2.28;1.20;;;;;;;18.19;43.11;100499.66;4968152;28;20424;-75
2024/01/06 03:51:15;;;;;;;2.75;1.20;;;;;;;18.13;42.94;100503.69;4969808;28;20050;-72
2024/01/06 03:53:40;;;;;;;2.70;1.38;;;;;;;18.08;42.77;100491.84;4969428;28;20038;-72
2024/01/06 03:56:06;;;;;;;1.80;1.05;;;;;;;18.11;43.00;100500.31;4969739;28;20042;-72
2024/01/06 03:58:31;;;;;;;2.22;1.30;;;;;;;18.17;42.87;100506.06;4969332;28;20046;-74
2024/01/06 04:00:56;;;;;;;2.28;1.25;;;;;;;18.12;42.61;100501.19;4969277;28;20491;-73
2024/01/06 04:03:22;;;;;;;2.10;1.10;;;;;;;18.07;42.88;100498.94;4967993;28;20038;-72
2024/01/06 04:05:47;;;;;;;1.85;1.10;;;;;;;18.10;42.70;100506.59;4968878;28;20273;-71
2024/01/06 04:08:12;;;;;;;2.10;1.20;;;;;;;18.07;42.88;100508.63;4968927;28;20035;-72
2024/01/06 04:10:38;;;;;;;2.13;1.20;;;;;;;18.07;42.75;100508.63;4969247;28;20273;-73
2024/01/06 04:13:03;;;;;;;2.05;1.00;;;;;;;18.07;42.60;100503.34;4968998;28;20038;-71
2024/01/06 04:15:29;;;;;;;2.08;1.08;;;;;;;18.17;42.51;100532.44;4968685;28;20034;-72
2024/01/06 04:17:54;;;;;;;2.90;1.17;;;;;;;18.13;42.62;100524.78;4968611;28;20842;-74
2024/01/06 04:20:19;;;;;;;2.03;1.10;;;;;;;18.15;42.68;100526.44;4968807;28;20269;-72
2024/01/06 04:22:45;;;;;;;2.30;1.20;;;;;;;18.12;42.70;100531.00;4969019;28;20042;-72
2024/01/06 04:25:10;;;;;;;1.90;1.00;;;;;;;18.03;42.66;100515.16;4968683;28;20050;-75
2024/01/06 04:27:36;;;;;;;2.05;1.10;;;;;;;18.12;42.57;100533.66;4968276;28;20046;-73
2024/01/06 04:30:01;;;;;;;1.35;0.90;;;;;;;18.03;42.35;100520.44;4968464;28;20035;-74
2024/01/06 04:32:27;;;;;;;1.92;0.98;;;;;;;18.00;42.50;100518.88;4968634;28;20122;-72
2024/01/06 04:34:52;;;;;;;3.17;1.30;;;;;;;18.11;42.43;100550.44;4968735;28;20695;-72
2024/01/06 04:37:17;;;;;;;1.93;0.80;;;;;;;18.10;42.70;100543.50;4968798;28;20070;-74
2024/01/06 04:39:43;;;;;;;2.88;0.98;;;;;;;18.02;42.19;100535.38;4968603;28;20287;-73
2024/01/06 04:42:08;;;;;;;1.40;0.90;;;;;;;18.08;42.26;100549.88;4951417;28;20039;-74
2024/01/06 04:44:33;;;;;;;2.00;0.80;;;;;;;18.04;42.35;100540.53;4968291;28;20034;-72
2024/01/06 04:46:58;;;;;;;1.30;0.82;;;;;;;18.06;42.34;100552.63;4968568;28;20090;-73
2024/01/06 04:49:24;;;;;;;1.73;0.90;;;;;;;17.98;42.65;100547.19;4950707;28;20133;-72
2024/01/06 04:51:49;;;;;;;2.23;1.00;;;;;;;18.05;42.27;100564.13;4968008;28;20296;-72
2024/01/06 04:54:14;;;;;;;1.75;1.00;;;;;;;17.97;42.24;100553.41;4968106;28;20281;-71
2024/01/06 04:56:39;;;;;;;2.03;0.90;;;;;;;18.07;42.58;100575.41;4968351;28;20082;-71
2024/01/06 04:59:05;;;;;;;1.80;1.00;;;;;;;18.06;42.08;100576.38;4968146;28;20276;-74
2024/01/06 05:01:30;;;;;;;1.40;0.70;;;;;;;18.05;42.17;100574.69;4968326;28;20102;-72
2024/01/06 05:03:56;;;;;;;2.38;0.90;;;;;;;18.05;42.02;100581.78;4966530;28;20457;-73
2024/01/06 05:06:23;;;;;;;1.75;0.90;;;;;;;18.04;42.28;100585.34;4967776;28;20066;-75
2024/01/06 05:08:48;;;;;;;1.40;0.77;;;;;;;17.99;41.94;100579.66;4967701;28;20035;-73
2024/01/06 05:11:13;;;;;;;1.33;0.82;;;;;;;18.03;42.05;100592.44;4967646;28;20444;-73
2024/01/06 05:13:39;;;;;;;1.92;0.90;;;;;;;17.99;42.35;100585.78;4967560;28;20089;-73
2024/01/06 05:16:04;;;;;;;1.52;1.00;;;;;;;18.02;42.00;100590.75;4968057;28;20041;-73
2024/01/06 05:18:29;;;;;;;1.83;0.90;;;;;;;17.92;42.12;100582.81;4967618;28;20384;-73
2024/01/06 05:20:55;;;;;;;1.45;0.82;;;;;;;18.02;42.21;100605.75;4967962;28;20031;-72
2024/01/06 05:23:20;;;;;;;1.60;0.80;;;;;;;18.01;41.98;100599.66;4966691;28;20038;-75
2024/01/06 05:25:46;;;;;;;1.17;0.60;;;;;;;17.95;41.74;100598.38;4967645;28;20499;-74
2024/01/06 05:28:11;;;;;;;1.95;0.80;;;;;;;17.97;41.90;100600.88;4967347;28;20039;-73
2024/01/06 05:30:36;;;;;;;1.08;0.70;;;;;;;17.98;41.91;100599.91;4967702;28;20038;-74
2024/01/06 05:33:03;;;;;;;2.33;0.70;;;;;;;17.92;41.84;100592.53;4967459;28;20435;-72
2024/01/06 05:35:28;;;;;;;1.40;0.70;;;;;;;18.00;41.84;100618.25;4967732;28;20031;-73
2024/01/06 05:37:53;;;;;;;1.27;0.80;;;;;;;17.98;41.72;100610.47;4967770;28;20038;-73
2024/01/06 05:40:19;;;;;;;1.60;0.70;;;;;;;17.85;41.80;100588.69;4967557;28;20031;-73
2024/01/06 05:42:44;;;;;;;1.47;0.60;;;;;;;17.87;41.75;100608.69;4967927;28;20764;-72
2024/01/06 05:45:13;;;;;;;1.37;0.70;;;;;;;17.96;42.03;100622.94;4967363;28;20285;-74
2024/01/06 05:47:38;;;;;;;1.83;0.80;;;;;;;17.88;41.79;100610.41;4982712;28;20304;-75
2024/01/06 05:50:04;;;;;;;1.42;0.80;;;;;;;17.96;41.53;100628.22;4967538;28;20030;-74
2024/01/06 05:52:29;;;;;;;1.83;0.80;;;;;;;17.94;41.91;100633.63;4967254;28;20039;-72
2024/01/06 05:54:54;;;;;;;2.00;0.90;;;;;;;17.84;41.75;100618.66;4967328;28;20030;-73
2024/01/06 05:57:20;;;;;;;1.70;0.80;;;;;;;17.85;41.57;100625.59;4967764;28;20479;-73
2024/01/06 05:59:46;;;;;;;1.33;0.70;;;;;;;17.88;41.69;100631.50;4968288;28;20292;-73
2024/01/06 06:02:11;;;;;;;1.58;0.60;;;;;;;17.95;42.08;100639.72;4966560;28;20038;-73
2024/01/06 06:04:36;;;;;;;1.33;0.70;;;;;;;17.88;42.15;100625.38;4968010;28;20035;-73
2024/01/06 06:07:02;;;;;;;1.43;0.80;;;;;;;17.88;42.12;100636.78;4967979;28;20260;-72
2024/01/06 06:09:28;;;;;;;1.05;0.60;;;;;;;17.96;42.36;100649.31;4968001;28;20371;-74
2024/01/06 06:11:54;;;;;;;1.70;0.73;;;;;;;17.90;42.55;100632.19;4967474;28;20361;-73
2024/01/06 06:14:19;;;;;;;0.65;0.47;;;;;;;18.06;42.39;100658.13;4967287;28;20038;-74
2024/01/06 06:16:44;;;;;;;1.25;0.60;;;;;;;18.09;42.57;100657.84;4967653;28;20030;-74
2024/01/06 06:19:10;;;;;;;1.25;0.50;;;;;;;18.10;42.83;100662.19;4967209;28;20035;-72
2024/01/06 06:21:35;;;;;;;0.60;0.50;;;;;;;18.12;42.49;100668.16;4967866;28;20035;-72
2024/01/06 06:24:00;;;;;;;0.70;0.50;;;;;;;18.16;42.71;100674.00;4967904;28;20132;-73
2024/01/06 06:26:27;;;;;;;1.03;0.60;;;;;;;18.18;42.44;100672.06;4967623;28;20383;-72
2024/01/06 06:28:53;;;;;;;0.90;0.50;;;;;;;18.20;42.76;100678.06;4967425;28;20289;-74
2024/01/06 06:31:18;;;;;;;0.70;0.50;;;;;;;18.26;42.54;100688.09;4966232;28;20480;-74
2024/01/06 06:33:43;;;;;;;1.67;0.57;;;;;;;18.30;42.65;100700.06;4967209;28;20031;-74
2024/01/06 06:36:08;;;;;;;0.68;0.45;;;;;;;18.33;42.22;100695.50;4966320;28;20031;-73
2024/01/06 06:38:34;;;;;;;0.73;0.50;;;;;;;18.27;42.45;100689.75;4967890;28;20082;-74
2024/01/06 06:40:59;;;;;;;1.17;0.63;;;;;;;18.36;42.31;100695.22;4967741;28;20034;-74
2024/01/06 06:43:24;;;;;;;0.82;0.50;;;;;;;18.26;42.46;100680.19;4967746;28;20066;-73
2024/01/06 06:45:50;;;;;;;1.02;0.50;;;;;;;18.31;42.32;100691.19;4967683;28;20073;-74
2024/01/06 06:48:15;;;;;;;1.42;0.50;;;;;;;18.41;42.24;100707.06;4967690;28;20940;-76
2024/01/06 06:50:41;;;;;;;0.47;0.45;;;;;;;18.44;42.24;100709.44;4968864;28;20026;-74
2024/01/06 06:53:07;;;;;;;1.13;0.50;;;;;;;18.43;42.47;100717.50;4968013;28;20800;-74
2024/01/06 06:55:32;;;;;;;1.27;0.55;;;;;;;18.34;42.52;100699.78;4967768;28;20041;-74
2024/01/06 06:57:57;;;;;;;0.85;0.55;;;;;;;18.37;42.27;100715.38;4968223;28;20034;-74
2024/01/06 07:00:23;;;;;;;1.23;0.55;;;;;;;18.44;42.49;100730.56;4968700;28;20349;-73
2024/01/06 07:02:48;;;;;;;2.72;0.50;;;;;;;18.36;42.33;100719.81;4967202;28;20110;-74
2024/01/06 07:05:14;;;;;;;0.80;0.57;;;;;;;18.44;42.54;100740.28;4968465;28;20038;-74
2024/01/06 07:07:39;;;;;;;0.93;0.52;;;;;;;18.46;42.36;100746.25;4968441;28;20139;-72
2024/01/06 07:10:05;;;;;;;1.70;0.60;;;;;;;18.48;42.48;100750.47;4968535;28;20101;-73
2024/01/06 07:12:31;;;;;;;1.02;0.50;;;;;;;18.48;42.43;100755.72;4968180;28;20027;-73
2024/01/06 07:14:58;;;;;;;0.65;0.50;;;;;;;18.36;42.30;100740.94;4968537;28;20041;-72
2024/01/06 07:17:24;;;;;;;0.90;0.40;;;;;;;18.49;42.36;100761.84;4968811;28;20471;-74
2024/01/06 07:19:49;;;;;;;0.43;0.40;;;;;;;18.45;42.23;100760.41;4982564;28;20054;-73
2024/01/06 07:22:16;;;;;;;1.23;0.65;;;;;;;18.37;41.72;100753.13;4967827;28;20097;-73
2024/01/06 07:24:41;;;;;;;1.70;0.60;;;;;;;18.39;41.43;100760.91;4972215;28;20034;-73
2024/01/06 07:27:07;;;;;;;1.65;0.68;;;;;;;18.43;41.82;100765.81;4971315;28;20456;-72
2024/01/06 07:29:32;;;;;;;0.93;0.60;;;;;;;18.45;41.75;100774.47;4971793;28;20039;-73
2024/01/06 07:31:57;;;;;;;1.20;0.70;;;;;;;18.46;41.67;100768.19;4972355;28;20039;-71
2024/01/06 07:34:23;;;;;;;4.32;0.93;;;;;;;18.39;41.82;100766.19;4971617;28;20423;-70
2024/01/06 07:36:48;;;;;;;1.30;0.70;;;;;;;18.49;41.56;100778.50;4971790;28;20038;-72
2024/01/06 07:39:14;;;;;;;2.53;0.85;;;;;;;18.49;41.90;100781.13;4971269;28;20412;-73
2024/01/06 07:41:39;;;;;;;1.98;0.70;;;;;;;18.49;41.94;100789.06;4971282;28;21230;-72
2024/01/06 07:44:04;;;;;;;1.75;0.80;;;;;;;18.50;42.35;100797.81;4969780;28;20396;-71
2024/01/06 07:46:31;;;;;;;1.17;0.55;;;;;;;18.50;42.21;100795.19;4971749;28;20261;-73
2024/01/06 07:48:56;;;;;;;4.15;0.80;;;;;;;18.52;42.26;100800.31;4971323;28;20030;-72
2024/01/06 07:51:21;;;;;;;2.38;0.73;;;;;;;18.47;42.15;100800.72;4971885;28;20042;-73
2024/01/06 07:53:46;;;;;;;1.93;0.70;;;;;;;18.50;42.17;100805.75;4971895;28;20026;-73
2024/01/06 07:56:12;;;;;;;2.00;0.88;;;;;;;18.44;42.11;100795.69;4971485;28;20757;-71
2024/01/06 07:58:37;;;;;;;2.38;0.90;;;;;;;18.43;42.02;100792.19;4971507;28;20054;-72
2024/01/06 08:01:02;;;;;;;2.20;0.90;;;;;;;18.46;42.55;100799.88;4973538;28;20031;-73
2024/01/06 08:03:28;;;;;;;2.00;0.82;;;;;;;18.48;42.46;100812.94;4975100;28;20284;-73
2024/01/06 08:05:54;;;;;;;3.13;1.10;;;;;;;18.54;42.39;100816.88;4974562;28;20045;-72
2024/01/06 08:08:19;;;;;;;2.17;0.80;;;;;;;18.46;42.52;100815.69;4974537;28;20117;-73
2024/01/06 08:10:45;;;;;;;1.92;0.90;;;;;;;18.46;42.43;100818.34;4973233;28;20035;-72
2024/01/06 08:13:10;;;;;;;3.03;1.00;;;;;;;18.55;42.36;100843.13;4974306;28;20047;-73
2024/01/06 08:15:35;;;;;;;3.50;0.80;;;;;;;18.55;42.55;100844.91;4972973;28;20074;-72
2024/01/06 08:18:48;;;;;;;3.70;1.25;;;;;;;18.58;43.55;100848.16;4972043;28;20076;-71
2024/01/06 08:21:31;;;;;;;4.72;1.40;;;;;;;18.56;44.21;100855.34;4972677;28;20456;-71
2024/01/06 08:23:56;;;;;;;8.48;1.88;;;;;;;18.51;44.61;100846.16;4972843;28;20039;-70
2024/01/06 08:26:22;;;;;;;6.60;1.70;;;;;;;18.61;44.74;100857.63;4971659;28;20034;-71
2024/01/06 08:28:47;;;;;;;6.18;1.60;;;;;;;18.53;44.52;100852.13;4968826;28;20045;-72
2024/01/06 08:31:13;;;;;;;8.15;2.00;;;;;;;18.53;44.47;100846.84;4967987;28;20043;-71
2024/01/06 08:33:38;;;;;;;5.18;1.77;;;;;;;18.52;44.56;100853.94;4968174;28;20058;-71
2024/01/06 08:36:04;;;;;;;4.70;1.77;;;;;;;18.52;44.33;100853.09;4968737;28;20081;-70
2024/01/06 08:38:30;;;;;;;5.03;1.50;;;;;;;18.53;44.24;100862.69;4968082;28;20460;-73
2024/01/06 08:40:58;;;;;;;4.80;1.95;;;;;;;18.47;44.34;100856.97;4968680;28;20031;-70
2024/01/06 08:43:23;;;;;;;6.20;1.70;;;;;;;18.49;44.50;100860.31;4968120;28;20130;-70
2024/01/06 08:45:50;;;;;;;4.22;1.60;;;;;;;18.54;44.81;100877.56;4968361;28;20122;-72
2024/01/06 08:48:16;;;;;;;4.43;1.63;;;;;;;18.59;44.54;100893.88;4968085;28;20031;-71
2024/01/06 08:50:41;;;;;;;4.72;1.90;;;;;;;18.50;43.93;100884.91;4968104;28;20031;-71
2024/01/06 08:53:06;;;;;;;5.32;1.77;;;;;;;18.50;44.21;100884.91;4968773;28;20033;-70
2024/01/06 08:55:31;;;;;;;6.93;1.65;;;;;;;18.58;44.21;100908.88;4968412;28;20046;-72
2024/01/06 08:57:57;;;;;;;4.90;1.55;;;;;;;18.60;44.27;100914.84;4968299;28;20126;-72
2024/01/06 09:00:22;;;;;;;5.80;1.77;;;;;;;18.61;44.18;100915.69;4967922;28;20716;-71
2024/01/06 09:02:48;;;;;;;5.55;1.48;;;;;;;18.53;44.23;100913.66;4966869;28;20285;-71
2024/01/06 09:05:14;;;;;;;4.03;1.42;;;;;;;18.60;44.27;100919.31;4968252;28;20138;-72
2024/01/06 09:07:39;;;;;;;5.25;1.63;;;;;;;18.51;44.26;100912.13;4967985;28;20067;-72
2024/01/06 09:10:04;;;;;;;5.43;1.65;;;;;;;18.59;44.30;100928.19;4968043;28;20368;-71
2024/01/06 09:12:30;;;;;;;5.40;1.48;;;;;;;18.51;44.11;100912.97;4967860;28;20090;-71
2024/01/06 09:14:58;;;;;;;4.53;1.40;;;;;;;18.60;44.23;100930.69;4967553;28;20035;-70
2024/01/06 09:17:23;;;;;;;4.47;1.70;;;;;;;18.51;44.04;100920.88;4967719;28;20027;-72
2024/01/06 09:19:49;;;;;;;4.68;1.38;;;;;;;18.54;43.93;100919.81;4966141;28;20082;-72
2024/01/06 09:22:14;;;;;;;5.53;1.75;;;;;;;18.55;43.87;100935.50;4967283;28;20780;-72
2024/01/06 09:24:40;;;;;;;4.03;1.55;;;;;;;18.50;44.09;100929.78;4967608;28;20502;-72
2024/01/06 09:27:05;;;;;;;5.53;1.48;;;;;;;18.57;43.69;100943.31;4950339;28;20035;-71
2024/01/06 09:29:30;;;;;;;3.25;1.33;;;;;;;18.48;43.77;100940.47;4967423;28;20090;-71
2024/01/06 09:31:56;;;;;;;5.05;1.70;;;;;;;18.51;43.63;100949.91;4964201;28;20388;-72
2024/01/06 09:34:21;;;;;;;5.85;1.65;;;;;;;18.58;43.84;100955.53;4966688;28;20080;-70
2024/01/06 09:36:47;;;;;;;5.73;1.67;;;;;;;18.52;43.70;100948.97;4966516;28;20046;-70
2024/01/06 09:39:12;;;;;;;4.13;1.42;;;;;;;18.49;43.63;100950.03;4965858;28;20385;-73
2024/01/06 09:41:37;;;;;;;4.50;1.50;;;;;;;18.52;43.66;100950.75;4964364;28;20444;-73
2024/01/06 09:44:03;;;;;;;3.97;1.25;;;;;;;18.57;43.47;100972.34;4967683;28;20041;-70
2024/01/06 09:46:31;;;;;;;5.18;1.42;;;;;;;18.57;43.38;100974.97;4966019;28;20680;-72
2024/01/06 09:48:58;;;;;;;3.30;1.23;;;;;;;18.60;43.14;100974.75;4967006;28;20034;-70
2024/01/06 09:51:24;;;;;;;4.88;1.58;;;;;;;18.53;43.25;100976.19;4967091;28;20022;-70
2024/01/06 09:53:58;;;;;;;4.30;1.38;;;;;;;18.60;43.24;100993.22;4967201;28;20031;-72
2024/01/06 09:56:25;;;;;;;3.63;1.40;;;;;;;18.51;43.11;100981.59;4949374;28;20026;-70
2024/01/06 09:58:51;;;;;;;4.25;1.35;;;;;;;18.58;42.84;101000.41;4966935;28;20035;-71
2024/01/06 10:01:17;;;;;;;4.35;1.60;;;;;;;18.48;43.19;100977.41;4966769;28;20609;-72
2024/01/06 10:03:42;;;;;;;5.35;1.35;;;;;;;18.59;43.04;101002.09;4964717;28;20039;-72
2024/01/06 10:06:09;;;;;;;3.53;1.20;;;;;;;18.57;42.93;101007.47;4966232;28;20086;-70
2024/01/06 10:08:35;;;;;;;3.00;1.27;;;;;;;18.51;42.96;100996.59;4966456;28;20039;-73
2024/01/06 10:11:01;;;;;;;2.60;1.10;;;;;;;18.58;42.96;101009.16;4967061;28;20066;-73
2024/01/06 10:13:27;;;;;;;4.03;1.48;;;;;;;18.26;42.83;100969.50;4981475;28;20034;-72
2024/01/06 10:15:54;;;;;;;2.65;1.23;;;;;;;18.58;42.93;101024.16;4967156;28;20037;-70
2024/01/06 10:18:19;;;;;;;3.58;1.50;;;;;;;18.52;42.84;101022.00;4966767;28;20447;-73
2024/01/06 10:20:45;;;;;;;3.17;1.20;;;;;;;18.57;42.83;101030.41;4966998;28;20046;-72
2024/01/06 10:23:10;;;;;;;6.07;1.50;;;;;;;18.52;42.82;101019.34;4966140;28;20057;-73
2024/01/06 10:25:36;;;;;;;3.85;1.40;;;;;;;18.57;42.49;101033.03;4966968;28;20046;-72
2024/01/06 10:28:03;;;;;;;4.25;1.38;;;;;;;18.29;42.47;100988.59;4966729;28;20031;-73
2024/01/06 10:30:28;;;;;;;3.38;1.48;;;;;;;18.56;42.44;101031.34;4966897;28;20101;-72
2024/01/06 10:32:54;;;;;;;4.15;1.10;;;;;;;18.46;42.45;101013.63;4966345;28;20027;-72
2024/01/06 10:35:19;;;;;;;2.67;1.23;;;;;;;18.47;42.48;101015.31;4966034;28;20096;-72
2024/01/06 10:37:45;;;;;;;4.15;1.52;;;;;;;18.55;42.37;101029.66;4966914;28;20157;-72
2024/01/06 10:40:13;;;;;;;3.75;1.10;;;;;;;18.45;42.33;101025.16;4966337;28;20046;-72
2024/01/06 10:42:40;;;;;;;4.75;1.35;;;;;;;18.55;42.23;101038.44;4966477;28;20031;-72
2024/01/06 10:45:10;;;;;;;2.70;1.20;;;;;;;18.55;42.26;101041.09;4966529;28;20051;-73
2024/01/06 10:47:37;;;;;;;3.33;1.20;;;;;;;18.55;42.16;101040.22;4966245;28;20037;-72
2024/01/06 10:50:03;;;;;;;2.85;1.20;;;;;;;18.55;42.23;101048.16;4966571;28;20046;-72
2024/01/06 10:52:28;;;;;;;3.30;1.35;;;;;;;18.45;42.09;101030.44;4966462;28;20042;-73
2024/01/06 10:54:54;;;;;;;5.53;1.10;;;;;;;18.54;42.04;101049.13;4966719;28;20050;-73
2024/01/06 10:57:21;;;;;;;2.80;1.17;;;;;;;18.51;42.15;101042.28;4967879;28;20443;-73
2024/01/06 10:59:50;;;;;;;2.85;1.40;;;;;;;18.55;42.12;101045.50;4970185;28;20031;-73
2024/01/06 11:02:18;;;;;;;3.78;1.40;;;;;;;18.53;42.04;101050.91;4969199;28;20055;-73
2024/01/06 11:04:48;;;;;;;3.58;1.33;;;;;;;18.44;42.01;101034.03;4969697;28;20125;-73
2024/01/06 11:07:16;;;;;;;3.38;1.27;;;;;;;18.47;41.95;101043.50;4970017;28;20042;-73
2024/01/06 11:09:50;;;;;;;3.13;1.25;;;;;;;18.44;42.19;101039.28;4969881;28;20038;-72
2024/01/06 11:12:16;;;;;;;3.50;1.30;;;;;;;18.54;42.13;101055.25;4970355;28;20041;-73
2024/01/06 11:14:41;;;;;;;2.65;1.15;;;;;;;18.52;42.23;101051.88;4970728;28;20129;-74
2024/01/06 11:17:07;;;;;;;3.50;1.33;;;;;;;18.53;42.05;101061.47;4970185;28;20787;-72